Time;durP1;ratioP1;P1;durP2;ratioP2;P2;SDS_P1;SDS_P2;PMS_P1;PMS_P2;Temp;Humidity;BMP_temperature;BMP_pressure;BME280_temperature;BME280_humidity;BME280_pressure;Samples;Min_cycle;Max_cycle;Signal;HPM_P1;HPM_P2
2022/09/26 00:01:21;;;;;;;5.22;4.85;;;;;;;8.94;100.00;100577.53;6143338;23;20025;-74
2022/09/26 00:03:56;;;;;;;4.40;4.20;;;;;;;9.03;100.00;100595.44;6104032;23;20020;-75
2022/09/26 00:06:23;;;;;;;4.50;4.30;;;;;;;9.10;100.00;100602.09;6067365;23;20010;-73
2022/09/26 00:08:50;;;;;;;4.65;4.45;;;;;;;9.29;100.00;100616.91;6129625;23;20086;-73
2022/09/26 00:11:21;;;;;;;7.75;4.45;;;;;;;9.00;100.00;100553.72;6064017;23;20034;-73
2022/09/26 00:13:54;;;;;;;5.05;4.68;;;;;;;9.13;100.00;100570.50;6120423;23;20009;-75
2022/09/26 00:16:21;;;;;;;4.60;4.40;;;;;;;9.49;100.00;100603.69;6116616;23;20135;-76
2022/09/26 00:18:53;;;;;;;5.53;4.68;;;;;;;9.41;100.00;100573.56;6119277;23;20108;-74
2022/09/26 00:21:20;;;;;;;5.13;4.72;;;;;;;9.61;100.00;100593.53;6094815;23;20056;-74
2022/09/26 00:23:47;;;;;;;5.00;4.70;;;;;;;9.58;100.00;100563.94;6105764;23;20021;-74
2022/09/26 00:26:15;;;;;;;4.20;4.00;;;;;;;9.64;100.00;100569.78;6095225;23;20026;-73
2022/09/26 00:28:42;;;;;;;5.85;5.45;;;;;;;9.65;100.00;100558.41;6127221;23;20074;-73
2022/09/26 00:31:27;;;;;;;4.80;4.50;;;;;;;9.38;100.00;100515.19;6095068;23;20033;-74
2022/09/26 00:33:53;;;;;;;5.15;4.85;;;;;;;9.57;100.00;100537.81;6118600;23;20017;-73
2022/09/26 00:36:20;;;;;;;5.05;4.85;;;;;;;9.69;100.00;100550.28;6061211;23;20366;-72
2022/09/26 00:39:02;;;;;;;4.53;4.32;;;;;;;9.70;100.00;100543.28;6062317;23;20026;-73
2022/09/26 00:41:28;;;;;;;4.93;4.63;;;;;;;9.70;100.00;100538.03;6125483;23;20029;-75
2022/09/26 00:43:56;;;;;;;6.20;5.75;;;;;;;9.69;100.00;100531.94;6094872;23;20033;-73
2022/09/26 00:46:30;;;;;;;6.55;5.85;;;;;;;9.59;100.00;100508.00;6126634;23;20028;-74
2022/09/26 00:49:22;;;;;;;5.28;4.97;;;;;;;9.64;100.00;100510.41;6075506;23;20641;-74
2022/09/26 00:51:54;;;;;;;6.00;5.60;;;;;;;9.54;100.00;100478.59;6122245;23;20318;-75
2022/09/26 00:54:21;;;;;;;5.18;4.88;;;;;;;9.86;100.00;100523.25;6089584;23;20068;-75
2022/09/26 00:56:52;;;;;;;5.60;4.93;;;;;;;9.85;100.00;100529.41;6116218;23;20034;-75
2022/09/26 00:59:24;;;;;;;4.93;4.63;;;;;;;9.85;100.00;100525.94;6093691;23;20267;-74
2022/09/26 01:01:53;;;;;;;9.10;4.50;;;;;;;9.85;100.00;100520.69;6142540;23;20014;-74
2022/09/26 01:04:24;;;;;;;5.45;5.05;;;;;;;9.63;100.00;100479.03;6095295;23;20028;-75
2022/09/26 01:06:51;;;;;;;4.75;4.45;;;;;;;9.41;100.00;100437.38;6112129;23;20041;-76
2022/09/26 01:09:18;;;;;;;4.95;4.60;;;;;;;9.78;100.00;100501.78;6092691;23;20022;-74
2022/09/26 01:11:45;;;;;;;4.50;4.30;;;;;;;9.85;100.00;100511.03;6119432;23;20026;-75
2022/09/26 01:14:12;;;;;;;4.95;4.65;;;;;;;9.83;100.00;100501.56;6091085;23;20518;-75
2022/09/26 01:16:41;;;;;;;7.28;5.15;;;;;;;9.51;100.00;100454.31;6092164;23;20013;-75
2022/09/26 01:19:21;;;;;;;5.82;5.15;;;;;;;9.53;100.00;100458.53;6091504;23;20018;-75
2022/09/26 01:22:15;;;;;;;5.63;5.07;;;;;;;9.76;100.00;100490.53;6118856;23;20067;-74
2022/09/26 01:25:16;;;;;;;4.32;4.13;;;;;;;9.75;100.00;100488.88;6089423;23;20047;-74
2022/09/26 01:28:09;;;;;;;4.72;4.53;;;;;;;9.34;100.00;100421.97;6119073;23;20018;-73
2022/09/26 01:30:49;;;;;;;7.85;5.45;;;;;;;9.46;100.00;100444.06;6087747;23;20035;-75
2022/09/26 01:33:51;;;;;;;11.85;5.28;;;;;;;9.72;100.00;100478.53;6068270;23;20387;-74
2022/09/26 01:36:30;;;;;;;4.85;4.55;;;;;;;9.72;100.00;100475.91;6030281;23;20032;-75
2022/09/26 01:39:25;;;;;;;5.15;4.85;;;;;;;9.75;100.00;100470.53;6062709;23;20080;-73
2022/09/26 01:42:10;;;;;;;4.63;4.43;;;;;;;9.75;100.00;100470.53;6119064;23;20070;-75
2022/09/26 01:44:49;;;;;;;4.55;4.35;;;;;;;9.76;100.00;100464.34;6087030;23;20025;-75
2022/09/26 01:47:30;;;;;;;4.75;4.50;;;;;;;9.73;100.00;100459.28;6095207;23;20147;-75
2022/09/26 01:50:09;;;;;;;5.28;4.97;;;;;;;9.81;100.00;100464.97;6065453;23;20079;-75
2022/09/26 01:52:44;;;;;;;5.22;4.93;;;;;;;8.69;100.00;100283.06;6118887;23;20059;-75
2022/09/26 01:55:16;;;;;;;4.97;4.68;;;;;;;9.38;100.00;100371.13;6089241;23;20017;-74
2022/09/26 01:57:46;;;;;;;5.60;5.07;;;;;;;9.91;100.00;100445.19;6098142;23;20021;-73
2022/09/26 02:00:13;;;;;;;5.15;4.80;;;;;;;9.74;100.00;100419.03;6090202;23;20030;-75
2022/09/26 02:02:46;;;;;;;4.90;4.60;;;;;;;9.84;100.00;100441.19;6122143;23;20599;-74
2022/09/26 02:05:24;;;;;;;4.72;4.45;;;;;;;9.68;100.00;100417.59;6090415;23;20388;-75
2022/09/26 02:08:02;;;;;;;4.75;4.55;;;;;;;9.47;100.00;100376.81;6128346;23;20009;-73
2022/09/26 02:10:48;;;;;;;4.72;4.53;;;;;;;9.84;100.00;100435.94;6091797;23;20018;-76
2022/09/26 02:13:22;;;;;;;4.82;4.53;;;;;;;9.79;100.00;100423.09;6124748;23;20046;-73
2022/09/26 02:15:55;;;;;;;4.68;4.43;;;;;;;9.82;100.00;100435.19;6104407;23;20029;-73
2022/09/26 02:18:37;;;;;;;5.63;5.13;;;;;;;9.76;100.00;100409.31;6103472;23;20667;-74
2022/09/26 02:21:19;;;;;;;5.30;4.67;;;;;;;9.80;100.00;100413.44;6096734;23;20037;-77
2022/09/26 02:23:47;;;;;;;4.75;4.45;;;;;;;9.80;100.00;100405.59;6131056;23;20285;-75
2022/09/26 02:26:14;;;;;;;5.13;4.82;;;;;;;9.75;100.00;100395.38;6088059;23;20066;-73
2022/09/26 02:28:41;;;;;;;6.05;5.55;;;;;;;9.68;100.00;100369.56;6118303;23;20458;-75
2022/09/26 02:31:08;;;;;;;4.75;4.45;;;;;;;9.83;100.00;100389.72;6072230;23;20455;-75
2022/09/26 02:33:36;;;;;;;6.70;5.07;;;;;;;9.84;100.00;100388.78;6120562;23;20036;-73
2022/09/26 02:36:05;;;;;;;5.75;5.38;;;;;;;9.80;100.00;100366.28;6064694;23;20029;-74
2022/09/26 02:38:31;;;;;;;5.28;4.95;;;;;;;9.76;100.00;100347.28;6134313;23;20426;-75
2022/09/26 02:41:10;;;;;;;4.60;4.32;;;;;;;9.91;100.00;100368.34;6100559;23;20018;-74
2022/09/26 02:43:41;;;;;;;4.70;4.40;;;;;;;9.93;100.00;100359.44;6124925;23;20093;-74
2022/09/26 02:46:52;;;;;;;5.20;4.82;;;;;;;9.95;100.00;100351.50;6101213;23;20021;-74
2022/09/26 02:49:38;;;;;;;5.28;4.90;;;;;;;9.91;100.00;100348.19;6080655;23;20036;-73
2022/09/26 02:52:23;;;;;;;6.50;5.30;;;;;;;9.97;100.00;100347.03;6092407;23;20034;-73
2022/09/26 02:55:13;;;;;;;5.35;4.95;;;;;;;9.99;100.00;100343.38;6127278;23;20024;-73
2022/09/26 02:58:04;;;;;;;4.50;4.30;;;;;;;10.02;100.00;100333.66;6090263;23;20016;-73
2022/09/26 03:00:54;;;;;;;5.80;5.35;;;;;;;10.03;100.00;100332.75;6112873;23;20035;-74
2022/09/26 03:03:39;;;;;;;4.88;4.63;;;;;;;9.73;100.00;100297.66;6071813;23;20014;-75
2022/09/26 03:06:08;;;;;;;5.68;5.28;;;;;;;9.88;100.00;100301.22;6062220;23;20092;-75
2022/09/26 03:08:39;;;;;;;5.03;4.72;;;;;;;9.95;100.00;100302.53;6127109;23;20563;-75
2022/09/26 03:11:09;;;;;;;5.35;5.05;;;;;;;10.03;100.00;100309.97;6088889;23;20120;-74
2022/09/26 03:13:38;;;;;;;5.20;4.90;;;;;;;9.72;100.00;100255.78;6117798;23;20071;-74
2022/09/26 03:16:06;;;;;;;7.47;5.22;;;;;;;10.07;100.00;100300.19;6089809;23;20029;-74
2022/09/26 03:18:40;;;;;;;5.45;5.05;;;;;;;9.93;100.00;100275.56;6117503;23;20036;-73
2022/09/26 03:21:07;;;;;;;6.15;5.75;;;;;;;9.55;100.00;100209.59;6087835;23;20056;-74
2022/09/26 03:23:33;;;;;;;5.40;5.07;;;;;;;10.08;100.00;100291.34;6120587;23;20521;-76
2022/09/26 03:26:07;;;;;;;10.77;6.68;;;;;;;10.08;100.00;100281.75;6088039;23;20025;-73
2022/09/26 03:28:33;;;;;;;5.60;5.13;;;;;;;9.75;100.00;100224.19;6115995;23;20086;-73
2022/09/26 03:31:03;;;;;;;4.72;4.45;;;;;;;9.76;100.00;100207.53;6091141;23;20021;-73
2022/09/26 03:33:30;;;;;;;5.95;5.55;;;;;;;10.12;100.00;100266.66;6117268;23;20032;-75
2022/09/26 03:35:58;;;;;;;5.72;5.32;;;;;;;10.07;100.00;100253.81;6063864;23;20053;-74
2022/09/26 03:38:26;;;;;;;5.43;5.13;;;;;;;10.10;100.00;100253.66;6122187;23;20347;-74
2022/09/26 03:40:53;;;;;;;4.88;4.57;;;;;;;10.19;100.00;100254.91;6087448;23;20802;-75
2022/09/26 03:43:23;;;;;;;4.50;4.30;;;;;;;9.65;100.00;100163.59;6116618;23;20106;-74
2022/09/26 03:45:50;;;;;;;5.40;5.00;;;;;;;9.67;100.00;100181.88;6088896;23;20131;-75
2022/09/26 03:48:16;;;;;;;5.45;5.10;;;;;;;10.16;100.00;100241.94;6112357;23;20023;-74
2022/09/26 03:50:43;;;;;;;5.15;4.85;;;;;;;9.99;100.00;100220.16;6099005;23;20014;-74
2022/09/26 03:53:12;;;;;;;4.88;4.57;;;;;;;9.74;100.00;100189.28;6117372;23;20017;-74
2022/09/26 03:55:38;;;;;;;5.32;5.03;;;;;;;9.72;100.00;100175.44;6086418;23;20017;-74
2022/09/26 03:58:05;;;;;;;5.32;5.03;;;;;;;10.05;100.00;100229.47;6117784;23;20017;-73
2022/09/26 04:00:32;;;;;;;5.30;4.90;;;;;;;9.64;100.00;100177.66;6060767;23;20694;-75
2022/09/26 04:03:02;;;;;;;5.18;4.80;;;;;;;9.51;100.00;100138.19;6118888;23;20532;-73
2022/09/26 04:05:28;;;;;;;5.50;5.10;;;;;;;9.99;100.00;100219.34;6081878;23;20068;-77
2022/09/26 04:07:54;;;;;;;5.75;5.35;;;;;;;9.81;100.00;100183.69;6120989;23;20009;-74
2022/09/26 04:10:23;;;;;;;4.90;4.60;;;;;;;9.84;100.00;100200.06;6088681;23;20071;-72
2022/09/26 04:12:49;;;;;;;5.05;4.75;;;;;;;9.79;100.00;100183.78;6113485;23;20082;-72
2022/09/26 04:15:15;;;;;;;6.03;5.63;;;;;;;9.69;100.00;100166.91;6065306;23;20022;-75
2022/09/26 04:17:42;;;;;;;4.80;4.50;;;;;;;8.53;100.00;99963.09;6117887;23;20033;-74
2022/09/26 04:20:08;;;;;;;6.55;5.20;;;;;;;9.92;100.00;100186.53;6085926;23;20693;-74
2022/09/26 04:22:34;;;;;;;4.82;4.53;;;;;;;9.83;100.00;100180.06;6115233;23;20037;-76
2022/09/26 04:25:01;;;;;;;5.05;4.78;;;;;;;9.87;100.00;100183.34;6086878;23;20030;-72
2022/09/26 04:27:27;;;;;;;5.63;5.15;;;;;;;9.86;100.00;100179.88;6112987;23;20411;-74
2022/09/26 04:29:56;;;;;;;5.55;5.15;;;;;;;9.29;100.00;100077.50;6084127;23;20018;-73
2022/09/26 04:32:23;;;;;;;6.43;5.82;;;;;;;9.85;100.00;100161.63;6111289;23;20408;-74
2022/09/26 04:34:50;;;;;;;5.10;4.80;;;;;;;9.83;100.00;100164.31;6062015;23;20018;-74
2022/09/26 04:37:17;;;;;;;5.20;4.90;;;;;;;9.79;100.00;100165.44;6116611;23;20698;-74
2022/09/26 04:39:43;;;;;;;5.45;5.10;;;;;;;8.76;100.00;100001.91;6063372;23;20049;-76
2022/09/26 04:42:10;;;;;;;5.43;5.10;;;;;;;9.43;100.00;100106.34;6116559;23;20029;-74
2022/09/26 04:44:36;;;;;;;5.07;4.78;;;;;;;9.06;100.00;100034.28;6094467;23;20033;-75
2022/09/26 04:47:02;;;;;;;5.05;4.65;;;;;;;9.73;100.00;100143.03;6116945;23;20005;-74
2022/09/26 04:49:29;;;;;;;9.13;6.15;;;;;;;9.77;100.00;100139.31;6086456;23;20031;-73
2022/09/26 04:51:56;;;;;;;5.50;5.10;;;;;;;9.38;100.00;100082.19;6071502;23;20103;-72
2022/09/26 04:54:22;;;;;;;5.13;4.82;;;;;;;9.50;100.00;100099.84;6118220;23;20013;-75
2022/09/26 04:56:49;;;;;;;6.30;5.82;;;;;;;9.16;100.00;100040.66;6093899;23;20087;-74
2022/09/26 04:59:15;;;;;;;4.50;4.30;;;;;;;9.17;100.00;100055.47;6112393;23;20014;-75
2022/09/26 05:01:41;;;;;;;4.97;4.65;;;;;;;9.64;100.00;100121.75;6093646;23;20076;-73
2022/09/26 05:04:08;;;;;;;5.15;4.85;;;;;;;9.30;100.00;100063.44;6121218;23;20096;-74
2022/09/26 05:06:35;;;;;;;5.00;4.70;;;;;;;9.56;100.00;100103.88;6073427;23;20022;-73
2022/09/26 05:09:03;;;;;;;5.93;5.53;;;;;;;9.22;100.00;100048.22;6130079;23;20445;-74
2022/09/26 05:11:31;;;;;;;5.78;4.65;;;;;;;9.25;100.00;100049.78;6064521;23;20010;-73
2022/09/26 05:13:57;;;;;;;4.78;4.53;;;;;;;9.59;100.00;100108.94;6115649;23;20014;-74
2022/09/26 05:16:27;;;;;;;5.00;4.70;;;;;;;9.56;100.00;100101.25;6091132;23;20064;-73
2022/09/26 05:18:54;;;;;;;5.82;5.32;;;;;;;9.28;100.00;100054.84;6118835;23;20458;-74
2022/09/26 05:21:21;;;;;;;4.45;4.25;;;;;;;9.44;100.00;100074.00;6082394;23;20365;-73
2022/09/26 05:26:40;;;;;;;5.25;4.85;;;;;;;9.59;100.00;100096.69;6092447;23;20079;-75
2022/09/26 05:29:07;;;;;;;4.80;4.50;;;;;;;9.23;100.00;100025.47;6112999;23;20091;-74
2022/09/26 05:31:36;;;;;;;5.43;5.05;;;;;;;9.64;100.00;100093.81;6089967;23;20022;-73
2022/09/26 05:34:12;;;;;;;5.20;4.80;;;;;;;9.65;100.00;100078.94;6115596;23;20643;-73
2022/09/26 05:36:45;;;;;;;5.55;5.05;;;;;;;9.14;100.00;99998.03;6072112;23;20034;-72
2022/09/26 05:41:57;;;;;;;4.95;4.65;;;;;;;9.46;100.00;100019.75;6092865;23;20157;-73
2022/09/26 05:44:24;;;;;;;5.20;4.90;;;;;;;9.39;100.00;100007.94;6114248;23;20021;-74
2022/09/26 05:46:51;;;;;;;5.22;4.93;;;;;;;9.52;100.00;100015.91;6070957;23;20137;-73
2022/09/26 05:49:17;;;;;;;4.72;4.43;;;;;;;9.67;100.00;100033.34;6096771;23;20037;-77
2022/09/26 05:51:44;;;;;;;5.15;4.85;;;;;;;9.46;100.00;99992.72;6094155;23;20028;-74
2022/09/26 05:54:10;;;;;;;5.00;4.70;;;;;;;9.77;100.00;100036.28;6099118;23;20018;-75
2022/09/26 05:56:36;;;;;;;4.63;4.35;;;;;;;8.77;100.00;99872.78;6092013;23;20046;-77
2022/09/26 05:59:03;;;;;;;5.13;4.72;;;;;;;10.07;100.00;100056.34;6122028;23;20082;-74
2022/09/26 06:01:32;;;;;;;4.50;4.30;;;;;;;9.94;100.00;100023.03;6091174;23;20601;-73
2022/09/26 06:03:58;;;;;;;4.32;4.13;;;;;;;10.23;100.00;100053.66;6064167;23;20028;-75
2022/09/26 06:06:25;;;;;;;4.43;4.22;;;;;;;10.31;100.00;100057.50;6120941;23;20564;-73
2022/09/26 06:08:51;;;;;;;4.78;4.55;;;;;;;9.90;100.00;99963.84;6072256;23;20014;-75
2022/09/26 06:11:21;;;;;;;4.72;4.53;;;;;;;10.46;100.00;100039.13;6063593;23;20057;-75
2022/09/26 06:13:47;;;;;;;5.13;4.82;;;;;;;10.27;100.00;99986.97;6119164;23;20043;-75
2022/09/26 06:16:17;;;;;;;5.30;5.00;;;;;;;10.37;100.00;99991.56;6094293;23;20474;-74
2022/09/26 06:18:45;;;;;;;4.40;4.20;;;;;;;10.75;100.00;100024.19;6120472;23;20458;-74
2022/09/26 06:21:14;;;;;;;6.30;5.88;;;;;;;10.68;100.00;100007.97;6096923;23;20028;-76
2022/09/26 06:23:41;;;;;;;7.93;6.85;;;;;;;10.48;100.00;99942.81;6058109;23;20011;-74
2022/09/26 06:26:13;;;;;;;6.47;5.75;;;;;;;10.34;100.00;99915.69;6110172;23;20087;-76
2022/09/26 06:28:40;;;;;;;5.63;5.25;;;;;;;11.00;100.00;100017.34;6082017;23;20226;-74
2022/09/26 06:31:12;;;;;;;5.00;4.70;;;;;;;9.75;100.00;99800.53;6106942;23;20026;-75
2022/09/26 06:33:39;;;;;;;5.70;5.30;;;;;;;11.09;100.00;100004.47;6069244;23;20047;-75
2022/09/26 06:36:08;;;;;;;6.50;6.00;;;;;;;11.08;100.00;99987.00;6112247;23;20025;-74
2022/09/26 06:38:35;;;;;;;7.07;5.85;;;;;;;11.18;100.00;99990.75;6071082;23;20368;-75
2022/09/26 06:41:02;;;;;;;5.78;5.40;;;;;;;11.07;100.00;99972.22;6115137;23;20026;-75
2022/09/26 06:43:30;;;;;;;5.75;5.35;;;;;;;11.26;100.00;99984.13;6079720;23;20032;-74
2022/09/26 06:45:56;;;;;;;5.10;4.80;;;;;;;11.09;100.00;99945.88;6114964;23;20096;-75
2022/09/26 06:48:26;;;;;;;5.97;5.55;;;;;;;10.81;100.00;99887.31;6082859;23;20506;-76
2022/09/26 06:50:54;;;;;;;5.22;4.90;;;;;;;11.27;100.00;99960.41;6056946;23;20061;-74
2022/09/26 06:53:21;;;;;;;4.70;4.50;;;;;;;11.38;100.00;99972.78;6112935;23;20632;-74
2022/09/26 06:55:48;;;;;;;5.40;5.10;;;;;;;11.42;100.00;99971.63;6047440;23;20089;-76
2022/09/26 06:58:14;;;;;;;5.15;4.85;;;;;;;11.26;100.00;99942.09;6115972;23;20009;-77
2022/09/26 07:00:40;;;;;;;7.57;4.60;;;;;;;11.52;100.00;99972.69;6073370;23;20049;-74
2022/09/26 07:03:07;;;;;;;5.40;5.10;;;;;;;11.17;100.00;99920.75;6112014;23;20022;-76
2022/09/26 07:05:34;;;;;;;5.25;4.95;;;;;;;10.89;100.00;99869.25;6074363;23;20026;-76
2022/09/26 07:08:01;;;;;;;4.60;4.40;;;;;;;11.12;100.00;99895.75;6093593;23;20074;-75
2022/09/26 07:10:29;;;;;;;4.53;4.32;;;;;;;11.51;100.00;99954.44;6086574;23;20026;-74
2022/09/26 07:13:04;;;;;;;5.15;4.80;;;;;;;11.32;100.00;99931.19;6118167;23;20034;-75
2022/09/26 07:15:32;;;;;;;4.95;4.68;;;;;;;11.51;100.00;99950.00;6083219;23;20558;-78
2022/09/26 07:18:03;;;;;;;4.68;4.47;;;;;;;11.55;100.00;99945.41;6055445;23;20006;-74
2022/09/26 07:20:33;;;;;;;4.80;4.60;;;;;;;11.11;100.00;99867.81;6112430;23;20036;-73
2022/09/26 07:23:01;;;;;;;4.95;4.63;;;;;;;11.18;100.00;99890.09;6075472;23;20018;-77
2022/09/26 07:25:30;;;;;;;4.90;4.60;;;;;;;11.40;100.00;99899.97;6117709;23;20025;-75
2022/09/26 07:27:56;;;;;;;4.38;4.18;;;;;;;11.60;100.00;99940.66;6086027;23;20761;-76
2022/09/26 07:30:23;;;;;;;4.57;4.32;;;;;;;11.37;100.00;99894.94;6089177;23;20106;-75
2022/09/26 07:32:49;;;;;;;5.10;4.65;;;;;;;11.22;100.00;99859.22;6061621;23;20017;-76
2022/09/26 07:35:16;;;;;;;5.30;4.90;;;;;;;10.70;100.00;99769.06;6115645;23;20033;-75
2022/09/26 07:37:43;;;;;;;4.70;4.50;;;;;;;11.72;100.00;99942.44;6108672;23;20006;-74
2022/09/26 07:40:10;;;;;;;4.70;4.45;;;;;;;11.38;100.00;99867.72;6114585;23;20030;-76
2022/09/26 07:42:37;;;;;;;4.35;4.15;;;;;;;11.29;100.00;99850.81;6061081;23;20081;-75
2022/09/26 07:45:04;;;;;;;4.85;4.57;;;;;;;11.29;100.00;99852.59;6115745;23;20422;-77
2022/09/26 07:50:36;;;;;;;4.60;4.40;;;;;;;11.72;100.00;99910.88;6115500;23;20025;-76
2022/09/26 07:53:03;;;;;;;4.65;4.45;;;;;;;11.39;100.00;99866.78;6087839;23;20022;-76
2022/09/26 07:55:29;;;;;;;5.10;4.82;;;;;;;11.30;100.00;99851.63;6057298;23;20051;-75
2022/09/26 07:57:56;;;;;;;4.57;4.38;;;;;;;11.58;100.00;99898.69;6112798;23;20321;-75
2022/09/26 08:00:23;;;;;;;4.22;4.03;;;;;;;11.35;100.00;99866.16;6086392;23;20480;-75
2022/09/26 08:02:51;;;;;;;5.00;4.60;;;;;;;11.32;100.00;99858.47;6055479;23;20014;-76
2022/09/26 08:05:21;;;;;;;5.45;5.15;;;;;;;11.06;100.00;99825.28;6111587;23;20037;-76
2022/09/26 08:07:48;;;;;;;4.60;4.40;;;;;;;11.27;100.00;99854.50;6070992;23;20014;-75
2022/09/26 08:10:18;;;;;;;4.35;4.15;;;;;;;11.16;100.00;99848.19;6113957;23;20021;-76
2022/09/26 08:12:46;;;;;;;4.30;4.10;;;;;;;11.40;100.00;99884.22;6077232;23;20025;-75
2022/09/26 08:15:13;;;;;;;4.38;4.18;;;;;;;11.36;100.00;99883.56;6113299;23;20086;-76
2022/09/26 08:17:40;;;;;;;4.75;4.47;;;;;;;10.77;100.00;99805.31;6085020;23;20136;-75
2022/09/26 08:20:07;;;;;;;4.60;4.40;;;;;;;11.34;100.00;99890.72;6058065;23;20034;-76
2022/09/26 08:22:33;;;;;;;4.70;4.45;;;;;;;10.91;100.00;99817.50;6116016;23;20657;-75
2022/09/26 08:25:00;;;;;;;4.80;4.50;;;;;;;11.34;100.00;99890.72;6085423;23;20026;-74
2022/09/26 08:27:30;;;;;;;7.80;4.50;;;;;;;10.02;100.00;99705.34;6123115;23;20018;-76
2022/09/26 08:29:57;;;;;;;4.78;4.47;;;;;;;11.34;100.00;99879.38;6082851;23;20083;-75
2022/09/26 08:32:24;;;;;;;5.13;4.82;;;;;;;11.15;100.00;99849.13;6117980;23;20013;-75
2022/09/26 08:34:52;;;;;;;5.05;4.60;;;;;;;11.29;100.00;99860.47;6087954;23;20022;-76
2022/09/26 08:37:19;;;;;;;4.68;4.38;;;;;;;11.21;100.00;99857.53;6120037;23;20396;-75
2022/09/26 08:39:47;;;;;;;4.75;4.18;;;;;;;10.99;100.00;99830.09;6062908;23;20030;-74
2022/09/26 08:42:27;;;;;;;4.50;4.30;;;;;;;11.22;100.00;99872.34;6096149;23;20050;-76
2022/09/26 08:46:30;;;;;;;7.95;4.18;;;;;;;11.21;100.00;99868.03;6089502;23;20099;-75
2022/09/26 08:48:01;;;;;;;4.32;4.13;;;;;;;11.00;100.00;99830.94;6120838;23;20020;-74
2022/09/26 08:50:37;;;;;;;4.40;4.20;;;;;;;11.20;100.00;99868.97;6098089;23;20013;-75
2022/09/26 08:53:10;;;;;;;5.70;4.50;;;;;;;10.71;100.00;99779.47;6119195;23;20016;-75
2022/09/26 08:55:43;;;;;;;4.20;4.00;;;;;;;11.31;100.00;99869.09;6091648;23;20014;-74
2022/09/26 08:58:19;;;;;;;4.38;4.18;;;;;;;11.30;100.00;99849.84;6091446;23;20023;-75
2022/09/26 09:00:58;;;;;;;4.43;4.23;;;;;;;11.22;100.00;99846.91;6092864;23;20037;-75
2022/09/26 09:03:32;;;;;;;4.75;4.55;;;;;;;11.45;100.00;99855.84;6122456;23;20285;-75
2022/09/26 09:06:06;;;;;;;4.50;4.30;;;;;;;11.52;100.00;99867.59;6089240;23;20037;-76
2022/09/26 09:08:45;;;;;;;4.82;4.53;;;;;;;11.56;100.00;99869.06;6119244;23;20009;-73
2022/09/26 09:11:26;;;;;;;5.45;4.38;;;;;;;11.64;100.00;99859.81;6108622;23;20030;-76
2022/09/26 09:13:55;;;;;;;4.47;4.28;;;;;;;11.64;100.00;99859.81;6121185;23;20017;-76
2022/09/26 09:16:50;;;;;;;4.40;4.20;;;;;;;10.08;100.00;99609.75;6088993;23;20038;-73
2022/09/26 09:19:49;;;;;;;4.60;4.40;;;;;;;11.56;100.00;99847.19;6119594;23;20036;-74
2022/09/26 09:22:40;;;;;;;4.95;4.65;;;;;;;10.96;100.00;99754.16;6061399;23;20111;-74
2022/09/26 09:25:18;;;;;;;5.00;4.60;;;;;;;11.17;100.00;99784.22;6091712;23;20021;-75
2022/09/26 09:27:54;;;;;;;4.30;4.10;;;;;;;10.95;100.00;99748.09;6067628;23;20018;-76
2022/09/26 09:30:53;;;;;;;4.53;4.32;;;;;;;11.46;100.00;99825.16;6112619;23;20716;-76
2022/09/26 09:33:27;;;;;;;4.75;4.45;;;;;;;11.24;100.00;99791.66;6051624;23;20037;-77
2022/09/26 09:36:06;;;;;;;5.10;4.80;;;;;;;11.17;100.00;99812.25;6108758;23;20036;-76
2022/09/26 09:38:36;;;;;;;4.82;4.53;;;;;;;11.41;100.00;99827.28;6061419;23;20597;-75
2022/09/26 09:41:08;;;;;;;4.55;4.35;;;;;;;11.54;100.00;99828.06;6111486;23;20025;-77
2022/09/26 09:43:44;;;;;;;5.63;4.75;;;;;;;11.39;100.00;99785.34;6041498;23;20052;-74
2022/09/26 09:46:27;;;;;;;5.10;4.90;;;;;;;11.81;100.00;99816.56;6110410;23;20273;-76
2022/09/26 09:49:22;;;;;;;5.22;4.93;;;;;;;11.97;100.00;99811.94;6065992;23;20087;-76
2022/09/26 09:52:01;;;;;;;5.18;4.88;;;;;;;12.16;100.00;99795.63;6104564;23;20090;-75
2022/09/26 09:54:50;;;;;;;5.22;4.82;;;;;;;12.29;100.00;99796.41;6078169;23;20026;-76
2022/09/26 09:57:38;;;;;;;5.25;4.97;;;;;;;12.17;100.00;99745.56;6113080;23;20996;-75
2022/09/26 10:00:13;;;;;;;4.90;4.70;;;;;;;12.49;100.00;99784.41;6058134;23;20038;-76
2022/09/26 10:03:01;;;;;;;4.70;4.50;;;;;;;12.50;100.00;99775.56;6100148;23;20093;-76
2022/09/26 10:05:32;;;;;;;5.20;4.90;;;;;;;12.46;100.00;99766.22;6050414;23;20097;-76
2022/09/26 10:07:58;;;;;;;4.78;4.57;;;;;;;12.12;100.00;99707.38;6119940;23;20005;-75
2022/09/26 10:10:53;;;;;;;5.20;4.90;;;;;;;12.51;100.00;99760.63;6092366;23;20584;-76
2022/09/26 10:13:24;;;;;;;4.80;4.55;;;;;;;12.43;100.00;99761.19;6121551;23;20046;-76
2022/09/26 10:15:57;;;;;;;5.22;4.93;;;;;;;12.18;100.00;99712.19;6086059;23;20048;-75
2022/09/26 10:18:24;;;;;;;5.22;4.93;;;;;;;12.03;100.00;99685.25;6139447;23;20037;-75
2022/09/26 10:20:59;;;;;;;5.10;4.90;;;;;;;11.67;100.00;99609.94;6090334;23;20108;-76
2022/09/26 10:23:38;;;;;;;4.90;4.70;;;;;;;12.29;100.00;99708.78;6055540;23;20018;-77
2022/09/26 10:26:08;;;;;;;4.78;4.57;;;;;;;12.52;100.00;99736.78;6086055;23;20470;-75
2022/09/26 10:28:44;;;;;;;4.85;4.65;;;;;;;12.53;100.00;99732.41;6122928;23;20419;-76
2022/09/26 10:31:24;;;;;;;4.95;4.65;;;;;;;12.42;100.00;99687.63;6071056;23;20030;-76
2022/09/26 10:33:59;;;;;;;4.97;4.70;;;;;;;12.84;100.00;99724.78;6136009;23;20069;-75
2022/09/26 10:36:30;;;;;;;4.90;4.47;;;;;;;12.58;100.00;99669.69;6064070;23;20022;-76
2022/09/26 10:41:46;;;;;;;4.68;4.47;;;;;;;12.63;100.00;99638.59;6113394;23;20074;-75
2022/09/26 10:44:29;;;;;;;4.82;4.63;;;;;;;13.10;100.00;99688.50;6084251;23;20673;-77
2022/09/26 10:46:57;;;;;;;;;;;;;;;13.18;100.00;99692.19;6127392;23;20026;-77
2022/09/26 10:49:35;;;;;;;4.93;4.72;;;;;;;12.95;100.00;99638.72;6115953;23;19922;-78
2022/09/26 10:52:25;;;;;;;5.50;5.10;;;;;;;13.29;100.00;99686.13;6057453;23;20052;-74
2022/09/26 10:55:03;;;;;;;4.90;4.70;;;;;;;13.39;100.00;99683.59;6122550;23;20092;-76
2022/09/26 10:57:44;;;;;;;4.65;4.45;;;;;;;13.42;100.00;99685.13;6089696;23;20017;-76
2022/09/26 11:00:36;;;;;;;5.60;5.30;;;;;;;13.62;100.00;99672.97;6120984;23;20037;-75
2022/09/26 11:03:09;;;;;;;5.03;4.82;;;;;;;13.60;100.00;99656.44;6080955;23;20021;-77
2022/09/26 11:05:58;;;;;;;4.90;4.70;;;;;;;13.73;100.00;99657.09;6116023;23;20040;-75
2022/09/26 11:08:33;;;;;;;4.88;4.65;;;;;;;13.60;100.00;99603.72;6118160;23;20759;-75
2022/09/26 11:11:06;;;;;;;4.90;4.70;;;;;;;13.88;100.00;99642.66;6111774;23;20026;-75
2022/09/26 11:14:02;;;;;;;5.15;4.85;;;;;;;14.00;100.00;99646.09;6062134;23;20014;-75
2022/09/26 11:16:51;;;;;;;5.47;5.10;;;;;;;14.08;100.00;99648.91;6109286;23;20115;-74
2022/09/26 11:19:25;;;;;;;4.80;4.60;;;;;;;14.26;100.00;99651.81;6081324;23;20024;-77
2022/09/26 11:22:25;;;;;;;5.10;4.90;;;;;;;14.10;100.00;99625.06;6115425;23;20113;-76
2022/09/26 11:25:05;;;;;;;5.00;4.80;;;;;;;13.96;100.00;99571.63;6086336;23;20018;-74
2022/09/26 11:27:42;;;;;;;5.18;4.97;;;;;;;14.28;100.00;99626.13;6109479;23;20025;-75
2022/09/26 11:30:13;;;;;;;4.80;4.60;;;;;;;14.14;100.00;99613.28;6064359;23;20026;-76
2022/09/26 11:32:43;;;;;;;4.93;4.63;;;;;;;14.03;100.00;99614.19;6098823;23;20611;-76
2022/09/26 11:35:44;;;;;;;4.88;4.68;;;;;;;13.97;100.00;99609.41;6057708;23;20033;-75
2022/09/26 11:38:38;;;;;;;4.80;4.60;;;;;;;13.96;100.00;99626.22;6079831;23;20317;-75
2022/09/26 11:41:42;;;;;;;5.10;4.80;;;;;;;14.07;100.00;99598.91;6089673;23;20026;-75
2022/09/26 11:44:21;;;;;;;5.43;4.90;;;;;;;14.05;100.00;99600.84;6111512;23;20098;-76
2022/09/26 11:47:12;;;;;;;5.40;5.10;;;;;;;14.08;100.00;99590.03;6082299;23;20022;-75
2022/09/26 11:49:38;;;;;;;4.72;4.53;;;;;;;14.19;99.19;99584.69;6113999;23;20089;-75
2022/09/26 11:52:13;;;;;;;4.82;4.63;;;;;;;14.21;99.21;99574.81;6085095;23;20658;-75
2022/09/26 11:54:57;;;;;;;4.80;4.60;;;;;;;14.07;97.85;99568.13;6086392;23;20029;-75
2022/09/26 11:57:52;;;;;;;5.30;4.80;;;;;;;14.09;97.96;99573.22;6081889;23;21208;-76
2022/09/26 12:00:26;;;;;;;5.28;4.97;;;;;;;13.84;96.21;99521.75;6108565;23;20158;-76
2022/09/26 12:03:26;;;;;;;4.90;4.70;;;;;;;14.25;96.94;99556.94;6081001;23;20076;-74